createdAt,value
2018-04-17T00:00:02.505Z,98.68
2018-04-17T00:02:30.921Z,98.79
2018-04-17T00:04:59.321Z,98.76
2018-04-17T00:07:27.703Z,98.80
2018-04-17T00:09:56.076Z,98.69
2018-04-17T00:12:24.459Z,98.73
2018-04-17T00:14:52.832Z,98.63
2018-04-17T00:17:21.214Z,98.75
2018-04-17T00:19:49.588Z,98.74
2018-04-17T00:22:17.964Z,98.87
2018-04-17T00:24:46.335Z,98.82
2018-04-17T00:27:14.754Z,98.84
2018-04-17T00:29:43.129Z,98.84
2018-04-17T00:32:11.505Z,98.72
2018-04-17T00:34:39.883Z,98.81
2018-04-17T00:37:08.318Z,98.74
2018-04-17T00:39:36.683Z,98.65
2018-04-17T00:42:05.084Z,98.74
2018-04-17T00:44:33.484Z,98.77
2018-04-17T00:47:01.856Z,98.89
2018-04-17T00:49:30.235Z,98.86
2018-04-17T00:51:58.622Z,98.89
2018-04-17T00:54:27.009Z,98.87
2018-04-17T00:56:55.389Z,98.95
2018-04-17T00:59:23.762Z,98.98
2018-04-17T01:01:52.141Z,99.00
2018-04-17T01:04:20.517Z,98.93
2018-04-17T01:06:48.896Z,98.90
2018-04-17T01:09:17.380Z,98.77
2018-04-17T01:11:45.811Z,98.89
2018-04-17T01:14:14.492Z,99.01
2018-04-17T01:16:42.862Z,99.11
2018-04-17T01:19:11.233Z,99.17
2018-04-17T01:21:39.610Z,99.21
2018-04-17T01:24:08.016Z,99.31
2018-04-17T01:26:36.393Z,99.34
2018-04-17T01:29:04.767Z,99.23
2018-04-17T01:31:33.200Z,99.18
2018-04-17T01:34:01.578Z,99.21
2018-04-17T01:36:30.755Z,99.08
2018-04-17T01:38:59.151Z,99.00
2018-04-17T01:41:27.542Z,99.14
2018-04-17T01:43:55.904Z,99.17
2018-04-17T01:46:24.297Z,99.19
2018-04-17T01:48:52.661Z,99.22
2018-04-17T01:51:21.046Z,99.23
2018-04-17T01:53:49.423Z,99.44
2018-04-17T01:56:17.802Z,99.40
2018-04-17T01:58:46.178Z,99.38
2018-04-17T02:01:14.575Z,99.32
2018-04-17T02:03:42.972Z,99.21
2018-04-17T02:06:11.380Z,99.17
2018-04-17T02:08:39.764Z,99.11
2018-04-17T02:11:08.155Z,99.22
2018-04-17T02:13:36.545Z,99.13
2018-04-17T02:16:04.929Z,99.11
2018-04-17T02:18:33.301Z,99.23
2018-04-17T02:21:01.701Z,99.31
2018-04-17T02:23:30.092Z,99.42
2018-04-17T02:25:58.490Z,99.38
2018-04-17T02:28:26.876Z,99.40
2018-04-17T02:30:55.247Z,99.34
2018-04-17T02:33:23.641Z,99.22
2018-04-17T02:35:52.021Z,99.22
2018-04-17T02:38:20.403Z,99.23
2018-04-17T02:40:48.781Z,99.19
2018-04-17T02:43:17.164Z,99.20
2018-04-17T02:45:45.549Z,99.39
2018-04-17T02:48:13.920Z,99.52
2018-04-17T02:50:42.297Z,99.68
2018-04-17T02:53:10.656Z,99.75
2018-04-17T02:55:39.039Z,99.89
2018-04-17T02:58:08.227Z,99.84
2018-04-17T03:00:36.612Z,99.84
2018-04-17T03:03:04.977Z,99.86
2018-04-17T03:05:33.361Z,100.00
2018-04-17T03:08:01.744Z,100.00
2018-04-17T03:10:30.188Z,100.00
2018-04-17T03:12:58.574Z,100.00
2018-04-17T03:15:26.945Z,100.00
2018-04-17T03:17:55.334Z,99.93
2018-04-17T03:20:23.720Z,99.90
2018-04-17T03:22:52.098Z,99.84
2018-04-17T03:25:20.532Z,99.87
2018-04-17T03:27:48.918Z,99.90
2018-04-17T03:30:17.307Z,99.95
2018-04-17T03:32:45.699Z,100.00
2018-04-17T03:35:14.089Z,100.00
2018-04-17T03:37:42.478Z,100.00
2018-04-17T03:40:10.856Z,99.99
2018-04-17T03:42:39.239Z,99.89
2018-04-17T03:45:07.641Z,99.94
2018-04-17T03:47:36.022Z,99.98
2018-04-17T03:50:04.432Z,99.91
2018-04-17T03:52:32.834Z,99.92
2018-04-17T03:55:01.243Z,99.93
2018-04-17T03:57:29.621Z,99.80
2018-04-17T03:59:58.071Z,99.70
2018-04-17T04:02:26.491Z,99.65
2018-04-17T04:04:54.861Z,99.62
2018-04-17T04:07:23.251Z,99.65
2018-04-17T04:09:51.641Z,99.62
2018-04-17T04:12:20.041Z,99.72
2018-04-17T04:14:48.435Z,99.86
2018-04-17T04:17:28.560Z,99.81
2018-04-17T04:20:08.925Z,99.71
2018-04-17T04:22:49.198Z,99.63
2018-04-17T04:25:40.388Z,99.70
2018-04-17T04:28:08.785Z,99.75
2018-04-17T04:30:37.226Z,99.75
2018-04-17T04:33:05.634Z,99.69
2018-04-17T04:35:34.032Z,99.68
2018-04-17T04:38:02.405Z,99.71
2018-04-17T04:40:30.776Z,99.71
2018-04-17T04:42:59.151Z,99.69
2018-04-17T04:45:27.577Z,99.60
2018-04-17T04:47:55.956Z,99.82
2018-04-17T04:50:24.347Z,99.89
2018-04-17T04:52:52.710Z,99.75
2018-04-17T04:55:21.112Z,99.17
2018-04-17T04:57:49.488Z,98.67
2018-04-17T05:00:17.868Z,98.37
2018-04-17T05:02:46.255Z,98.18
2018-04-17T05:05:14.692Z,97.59
2018-04-17T05:07:43.087Z,97.53
2018-04-17T05:10:11.469Z,97.75
2018-04-17T05:12:39.861Z,97.91
2018-04-17T05:15:08.243Z,97.96
2018-04-17T05:17:36.610Z,98.16
2018-04-17T05:20:05.007Z,98.05
2018-04-17T05:22:33.383Z,98.06
2018-04-17T05:25:01.780Z,98.18
2018-04-17T05:27:30.168Z,98.40
2018-04-17T05:29:58.542Z,98.44
2018-04-17T05:32:26.930Z,98.53
2018-04-17T05:34:55.311Z,98.45
2018-04-17T05:37:23.715Z,98.27
2018-04-17T05:39:52.084Z,98.17
2018-04-17T05:42:20.471Z,98.30
2018-04-17T05:44:48.853Z,98.28
2018-04-17T05:47:17.186Z,98.18
2018-04-17T05:49:45.520Z,98.38
2018-04-17T05:52:13.881Z,98.21
2018-04-17T05:54:42.208Z,97.79
2018-04-17T05:57:10.586Z,97.67
2018-04-17T05:59:38.879Z,97.80
2018-04-17T06:02:07.223Z,97.78
2018-04-17T06:04:35.561Z,97.85
2018-04-17T06:07:03.909Z,97.87
2018-04-17T06:09:32.245Z,97.77
2018-04-17T06:12:00.585Z,97.77
2018-04-17T06:14:28.915Z,97.60
2018-04-17T06:16:57.265Z,97.54
2018-04-17T06:19:25.603Z,97.67
2018-04-17T06:21:53.983Z,97.65
2018-04-17T06:24:22.332Z,97.42
2018-04-17T06:26:50.681Z,97.43
2018-04-17T06:29:19.024Z,97.25
2018-04-17T06:31:47.353Z,97.22
2018-04-17T06:34:15.708Z,97.13
2018-04-17T06:36:44.039Z,97.02
2018-04-17T06:39:12.372Z,96.72
2018-04-17T06:41:40.758Z,96.11
2018-04-17T06:44:09.092Z,96.24
2018-04-17T06:46:37.420Z,95.70
2018-04-17T06:49:05.774Z,95.81
2018-04-17T06:51:34.100Z,95.44
2018-04-17T06:54:02.455Z,95.03
2018-04-17T06:56:30.775Z,94.74
2018-04-17T06:58:59.134Z,95.55
2018-04-17T07:01:27.477Z,95.68
2018-04-17T07:03:55.831Z,95.61
2018-04-17T07:06:25.941Z,95.57
2018-04-17T07:08:54.300Z,94.69
2018-04-17T07:11:22.635Z,94.52
2018-04-17T07:13:51.009Z,94.39
2018-04-17T07:16:19.347Z,94.03
2018-04-17T07:18:47.684Z,93.50
2018-04-17T07:21:16.046Z,93.33
2018-04-17T07:23:44.427Z,93.74
2018-04-17T07:26:12.737Z,93.89
2018-04-17T07:28:41.087Z,94.50
2018-04-17T07:31:09.424Z,94.48
2018-04-17T07:33:37.756Z,94.27
2018-04-17T07:36:06.125Z,94.38
2018-04-17T07:38:34.456Z,93.81
2018-04-17T07:41:02.802Z,93.72
2018-04-17T07:43:31.138Z,94.42
2018-04-17T07:45:59.481Z,93.73
2018-04-17T07:48:39.797Z,93.92
2018-04-17T07:51:08.140Z,94.70
2018-04-17T07:53:36.491Z,95.22
2018-04-17T07:56:04.828Z,95.43
2018-04-17T07:58:33.161Z,95.22
2018-04-17T08:01:01.609Z,94.64
2018-04-17T08:03:29.955Z,94.08
2018-04-17T08:05:59.410Z,93.37
2018-04-17T08:08:27.726Z,92.51
2018-04-17T08:10:56.083Z,92.08
2018-04-17T08:13:24.408Z,92.22
2018-04-17T08:15:52.771Z,91.98
2018-04-17T08:18:21.108Z,91.62
2018-04-17T08:20:49.467Z,92.09
2018-04-17T08:23:17.830Z,92.35
2018-04-17T08:25:46.164Z,92.13
2018-04-17T08:28:14.778Z,92.44
2018-04-17T08:30:43.137Z,91.07
2018-04-17T08:33:12.579Z,91.55
2018-04-17T08:35:40.933Z,90.26
2018-04-17T08:38:09.266Z,90.28
2018-04-17T08:40:37.609Z,90.41
2018-04-17T08:43:05.981Z,90.22
2018-04-17T08:45:34.323Z,89.66
2018-04-17T08:48:02.669Z,89.58
2018-04-17T08:50:31.020Z,89.33
2018-04-17T08:52:59.351Z,90.31
2018-04-17T08:55:27.718Z,88.60
2018-04-17T08:57:56.067Z,89.46
2018-04-17T09:00:24.409Z,89.28
2018-04-17T09:02:52.772Z,87.92
2018-04-17T09:05:21.106Z,87.09
2018-04-17T09:07:49.472Z,85.93
2018-04-17T09:10:17.799Z,85.74
2018-04-17T09:12:46.150Z,85.73
2018-04-17T09:15:14.505Z,85.95
2018-04-17T09:17:42.840Z,86.04
2018-04-17T09:20:11.185Z,86.65
2018-04-17T09:22:39.530Z,87.47
2018-04-17T09:25:07.864Z,88.25
2018-04-17T09:27:36.220Z,87.18
2018-04-17T09:30:04.545Z,88.21
2018-04-17T09:32:32.888Z,88.69
2018-04-17T09:35:01.223Z,88.64
2018-04-17T09:37:29.565Z,88.91
2018-04-17T09:39:57.907Z,88.55
2018-04-17T09:42:26.272Z,87.39
2018-04-17T09:44:54.631Z,87.27
2018-04-17T09:47:22.993Z,85.07
2018-04-17T09:49:51.316Z,83.82
2018-04-17T09:52:19.680Z,84.48
2018-04-17T09:54:48.001Z,84.34
2018-04-17T09:57:16.359Z,85.13
2018-04-17T09:59:44.708Z,83.16
2018-04-17T10:02:13.057Z,82.42
2018-04-17T10:04:41.413Z,82.71
2018-04-17T10:07:09.750Z,77.79
2018-04-17T10:09:38.091Z,79.17
2018-04-17T10:12:06.465Z,77.40
2018-04-17T10:14:34.820Z,79.45
2018-04-17T10:17:03.174Z,79.03
2018-04-17T10:19:31.510Z,76.44
2018-04-17T10:21:59.868Z,74.89
2018-04-17T10:24:28.697Z,75.02
2018-04-17T10:26:57.034Z,72.49
2018-04-17T10:29:25.376Z,75.27
2018-04-17T10:31:53.705Z,69.92
2018-04-17T10:34:22.051Z,66.95
2018-04-17T10:36:50.396Z,63.62
2018-04-17T10:39:18.762Z,64.14
2018-04-17T10:41:47.095Z,63.34
2018-04-17T10:44:15.440Z,62.94
2018-04-17T10:46:43.776Z,63.51
2018-04-17T10:49:12.137Z,67.13
2018-04-17T10:51:40.477Z,70.49
2018-04-17T10:54:08.872Z,74.32
2018-04-17T10:56:37.196Z,75.10
2018-04-17T10:59:05.555Z,73.10
2018-04-17T11:01:33.885Z,76.08
2018-04-17T11:04:02.238Z,74.86
2018-04-17T11:06:30.574Z,75.59
2018-04-17T11:08:58.941Z,75.05
2018-04-17T11:11:27.278Z,75.41
2018-04-17T11:13:55.622Z,74.79
2018-04-17T11:16:23.980Z,75.02
2018-04-17T11:18:52.313Z,75.42
2018-04-17T11:21:21.391Z,74.07
2018-04-17T11:23:49.724Z,74.65
2018-04-17T11:26:18.078Z,75.22
2018-04-17T11:28:46.440Z,73.93
2018-04-17T11:31:14.803Z,73.32
2018-04-17T11:33:43.150Z,73.43
2018-04-17T11:36:11.521Z,73.48
2018-04-17T11:38:39.857Z,74.47
2018-04-17T11:41:08.217Z,72.96
2018-04-17T11:43:36.581Z,72.28
2018-04-17T11:46:04.928Z,67.81
2018-04-17T11:48:33.283Z,63.71
2018-04-17T11:51:01.634Z,62.48
2018-04-17T11:53:29.976Z,62.33
2018-04-17T11:55:58.350Z,59.86
2018-04-17T11:58:26.693Z,59.00
2018-04-17T12:00:55.041Z,58.87
2018-04-17T12:03:23.412Z,61.51
2018-04-17T12:05:51.750Z,62.17
2018-04-17T12:08:20.105Z,61.54
2018-04-17T12:10:48.445Z,59.63
2018-04-17T12:13:16.858Z,61.87
2018-04-17T12:15:45.134Z,61.44
2018-04-17T12:18:13.478Z,61.02
2018-04-17T12:20:41.854Z,61.30
2018-04-17T12:23:10.183Z,62.09
2018-04-17T12:25:38.522Z,57.32
2018-04-17T12:28:06.865Z,57.11
2018-04-17T12:30:36.006Z,57.46
2018-04-17T12:33:04.409Z,55.62
2018-04-17T12:35:32.727Z,55.30
2018-04-17T12:38:01.086Z,59.06
2018-04-17T12:40:30.014Z,59.33
2018-04-17T12:42:58.351Z,58.24
2018-04-17T12:45:26.700Z,60.01
2018-04-17T12:47:55.060Z,57.41
2018-04-17T12:50:23.401Z,51.98
2018-04-17T12:52:51.746Z,52.02
2018-04-17T12:55:20.100Z,50.21
2018-04-17T12:57:48.459Z,53.91
2018-04-17T13:00:16.807Z,48.44
2018-04-17T13:02:45.226Z,46.81
2018-04-17T13:05:13.620Z,44.17
2018-04-17T13:07:42.004Z,44.72
2018-04-17T13:10:10.318Z,45.29
2018-04-17T13:12:38.691Z,48.49
2018-04-17T13:15:07.045Z,52.89
2018-04-17T13:17:35.401Z,52.87
2018-04-17T13:20:03.792Z,52.72
2018-04-17T13:22:32.123Z,52.60
2018-04-17T13:25:00.552Z,50.05
2018-04-17T13:27:28.878Z,47.88
2018-04-17T13:29:57.239Z,44.97
2018-04-17T13:32:25.656Z,45.15
2018-04-17T13:34:54.015Z,46.92
2018-04-17T13:37:22.375Z,44.27
2018-04-17T13:39:50.725Z,46.52
2018-04-17T13:42:19.108Z,45.66
2018-04-17T13:44:47.456Z,44.65
2018-04-17T13:47:15.854Z,46.99
2018-04-17T13:49:44.172Z,50.18
2018-04-17T13:52:12.511Z,49.53
2018-04-17T13:54:40.893Z,50.84
2018-04-17T13:57:09.243Z,47.54
2018-04-17T13:59:37.700Z,47.74
2018-04-17T14:02:06.028Z,49.69
2018-04-17T14:04:34.364Z,50.92
2018-04-17T14:07:02.728Z,50.20
2018-04-17T14:09:31.084Z,49.66
2018-04-17T14:11:59.436Z,49.54
2018-04-17T14:14:27.770Z,51.52
2018-04-17T14:16:56.124Z,49.04
2018-04-17T14:19:24.540Z,48.13
2018-04-17T14:21:52.881Z,48.46
2018-04-17T14:24:21.229Z,51.72
2018-04-17T14:26:49.588Z,48.54
2018-04-17T14:29:17.922Z,47.78
2018-04-17T14:31:46.268Z,45.61
2018-04-17T14:34:14.744Z,49.22
2018-04-17T14:36:43.083Z,50.51
2018-04-17T14:39:11.505Z,51.77
2018-04-17T14:41:39.872Z,49.10
2018-04-17T14:44:08.207Z,47.60
2018-04-17T14:46:36.559Z,49.75
2018-04-17T14:49:04.934Z,51.08
2018-04-17T14:51:33.267Z,49.74
2018-04-17T14:54:01.619Z,46.70
2018-04-17T14:56:29.979Z,46.14
2018-04-17T14:58:58.303Z,49.17
2018-04-17T15:01:26.728Z,48.83
2018-04-17T15:03:55.013Z,49.25
2018-04-17T15:06:23.360Z,52.86
2018-04-17T15:08:51.731Z,51.20
2018-04-17T15:11:20.037Z,50.96
2018-04-17T15:13:48.372Z,49.40
2018-04-17T15:16:16.890Z,48.73
2018-04-17T15:18:45.232Z,45.80
2018-04-17T15:21:13.603Z,46.80
2018-04-17T15:23:41.942Z,47.06
2018-04-17T15:26:10.296Z,46.45
2018-04-17T15:28:38.653Z,47.50
2018-04-17T15:31:07.045Z,49.44
2018-04-17T15:33:35.364Z,49.38
2018-04-17T15:36:03.728Z,50.12
2018-04-17T15:38:32.068Z,49.55
2018-04-17T15:41:00.416Z,49.39
2018-04-17T15:43:28.769Z,47.01
2018-04-17T15:45:57.092Z,49.31
2018-04-17T15:48:25.484Z,48.01
2018-04-17T15:50:53.895Z,50.32
2018-04-17T15:53:22.326Z,48.98
2018-04-17T15:55:50.658Z,48.18
2018-04-17T15:58:19.032Z,49.29
2018-04-17T16:00:47.389Z,49.48
2018-04-17T16:03:15.770Z,50.32
2018-04-17T16:05:44.083Z,51.88
2018-04-17T16:08:12.463Z,51.69
2018-04-17T16:10:40.893Z,51.08
2018-04-17T16:13:09.319Z,50.56
2018-04-17T16:15:37.658Z,50.94
2018-04-17T16:18:06.017Z,52.01
2018-04-17T16:20:34.362Z,53.42
2018-04-17T16:23:02.721Z,55.47
2018-04-17T16:25:31.045Z,53.98
2018-04-17T16:27:59.391Z,54.93
2018-04-17T16:30:27.740Z,54.01
2018-04-17T16:32:56.099Z,54.39
2018-04-17T16:35:24.459Z,51.79
2018-04-17T16:37:52.790Z,53.58
2018-04-17T16:40:21.154Z,53.58
2018-04-17T16:42:49.503Z,52.80
2018-04-17T16:45:17.858Z,51.66
2018-04-17T16:47:46.206Z,53.05
2018-04-17T16:50:14.562Z,53.87
2018-04-17T16:52:42.893Z,54.06
2018-04-17T16:55:11.252Z,54.59
2018-04-17T16:57:39.586Z,56.15
2018-04-17T17:00:07.970Z,55.51
2018-04-17T17:02:36.310Z,57.41
2018-04-17T17:05:04.651Z,56.52
2018-04-17T17:07:32.982Z,55.87
2018-04-17T17:10:01.351Z,58.09
2018-04-17T17:12:29.722Z,60.62
2018-04-17T17:14:58.054Z,59.78
2018-04-17T17:17:26.422Z,60.21
2018-04-17T17:19:54.766Z,62.07
2018-04-17T17:22:23.223Z,63.00
2018-04-17T17:24:51.583Z,62.23
2018-04-17T17:27:19.910Z,63.29
2018-04-17T17:29:48.294Z,62.06
2018-04-17T17:32:16.663Z,63.06
2018-04-17T17:34:45.179Z,65.67
2018-04-17T17:37:13.544Z,65.45
2018-04-17T17:39:41.959Z,66.61
2018-04-17T17:42:10.288Z,67.14
2018-04-17T17:44:38.637Z,68.51
2018-04-17T17:47:07.010Z,70.25
2018-04-17T17:49:35.387Z,70.38
2018-04-17T17:52:03.751Z,70.75
2018-04-17T17:54:32.167Z,71.34
2018-04-17T17:57:00.490Z,72.19
2018-04-17T17:59:28.836Z,72.75
2018-04-17T18:01:57.173Z,73.05
2018-04-17T18:04:25.505Z,73.85
2018-04-17T18:06:53.839Z,75.18
2018-04-17T18:09:22.201Z,76.54
2018-04-17T18:11:50.552Z,77.12
2018-04-17T18:14:18.926Z,77.53
2018-04-17T18:16:47.284Z,77.68
2018-04-17T18:19:15.621Z,78.31
2018-04-17T18:21:43.988Z,78.91
2018-04-17T18:24:12.434Z,79.45
2018-04-17T18:26:40.781Z,80.48
2018-04-17T18:29:09.121Z,80.19
2018-04-17T18:31:37.460Z,79.70
2018-04-17T18:34:05.820Z,79.84
2018-04-17T18:36:34.185Z,79.85
2018-04-17T18:39:02.542Z,80.04
2018-04-17T18:41:30.877Z,81.01
2018-04-17T18:43:59.220Z,81.61
2018-04-17T18:46:27.607Z,81.86
2018-04-17T18:48:55.939Z,82.01
2018-04-17T18:51:24.341Z,81.73
2018-04-17T18:53:52.712Z,81.80
2018-04-17T18:56:21.051Z,82.63
2018-04-17T18:58:49.422Z,83.10
2018-04-17T19:01:17.777Z,83.64
2018-04-17T19:03:46.109Z,84.23
2018-04-17T19:06:14.468Z,83.81
2018-04-17T19:08:42.803Z,83.97
2018-04-17T19:11:13.631Z,83.87
2018-04-17T19:13:43.240Z,83.70
2018-04-17T19:16:11.596Z,83.62
2018-04-17T19:18:39.957Z,84.43
2018-04-17T19:21:08.312Z,84.43
2018-04-17T19:23:36.679Z,84.53
2018-04-17T19:26:05.079Z,84.72
2018-04-17T19:28:33.411Z,85.09
2018-04-17T19:31:01.770Z,85.39
2018-04-17T19:33:30.151Z,86.09
2018-04-17T19:35:58.528Z,85.91
2018-04-17T19:38:26.958Z,86.48
2018-04-17T19:40:55.340Z,86.45
2018-04-17T19:43:23.690Z,86.60
2018-04-17T19:45:52.068Z,87.43
2018-04-17T19:48:20.438Z,87.10
2018-04-17T19:50:48.787Z,87.08
2018-04-17T19:53:17.141Z,86.76
2018-04-17T19:55:45.478Z,87.23
2018-04-17T19:58:13.840Z,87.38
2018-04-17T20:00:42.279Z,87.23
2018-04-17T20:03:10.601Z,88.20
2018-04-17T20:05:38.958Z,87.92
2018-04-17T20:08:07.369Z,87.80
2018-04-17T20:10:35.737Z,87.82
2018-04-17T20:13:04.109Z,88.17
2018-04-17T20:15:32.461Z,88.85
2018-04-17T20:18:00.827Z,89.03
2018-04-17T20:20:29.165Z,88.97
2018-04-17T20:22:57.534Z,89.13
2018-04-17T20:25:25.860Z,88.74
2018-04-17T20:27:54.423Z,88.50
2018-04-17T20:30:22.772Z,88.92
2018-04-17T20:32:51.107Z,89.41
2018-04-17T20:35:19.469Z,89.22
2018-04-17T20:37:47.803Z,89.65
2018-04-17T20:40:16.185Z,90.02
2018-04-17T20:42:44.535Z,89.72
2018-04-17T20:45:12.887Z,89.78
2018-04-17T20:47:41.312Z,90.03
2018-04-17T20:50:09.652Z,90.04
2018-04-17T20:52:37.983Z,90.00
2018-04-17T20:55:06.349Z,90.41
2018-04-17T20:57:34.711Z,90.23
2018-04-17T21:00:03.067Z,89.73
2018-04-17T21:02:31.470Z,89.32
2018-04-17T21:04:59.838Z,89.46
2018-04-17T21:07:28.172Z,89.81
2018-04-17T21:09:56.522Z,89.70
2018-04-17T21:12:33.469Z,89.76
2018-04-17T21:15:01.797Z,90.14
2018-04-17T21:17:30.184Z,90.46
2018-04-17T21:19:58.571Z,90.81
2018-04-17T21:22:26.965Z,90.84
2018-04-17T21:24:55.281Z,90.98
2018-04-17T21:27:23.632Z,90.75
2018-04-17T21:29:51.984Z,91.04
2018-04-17T21:32:20.345Z,90.82
2018-04-17T21:34:48.687Z,90.91
2018-04-17T21:37:17.032Z,90.97
2018-04-17T21:39:45.372Z,90.92
2018-04-17T21:42:13.763Z,90.67
2018-04-17T21:44:42.090Z,90.82
2018-04-17T21:47:10.418Z,90.67
2018-04-17T21:49:38.757Z,90.91
2018-04-17T21:52:07.101Z,90.64
2018-04-17T21:54:35.456Z,90.70
2018-04-17T21:57:03.787Z,90.74
2018-04-17T21:59:32.150Z,90.42
2018-04-17T22:02:00.529Z,90.35
2018-04-17T22:04:28.905Z,90.56
2018-04-17T22:06:57.249Z,90.73
2018-04-17T22:09:25.625Z,90.62
2018-04-17T22:11:53.921Z,90.65
2018-04-17T22:14:22.269Z,90.62
2018-04-17T22:16:50.601Z,90.42
2018-04-17T22:19:18.947Z,90.29
2018-04-17T22:21:47.309Z,90.37
2018-04-17T22:24:15.657Z,90.22
2018-04-17T22:26:43.984Z,90.39
2018-04-17T22:29:12.337Z,90.52
2018-04-17T22:31:40.684Z,90.41
2018-04-17T22:34:09.028Z,90.65
2018-04-17T22:36:37.501Z,90.85
2018-04-17T22:39:06.706Z,90.86
2018-04-17T22:41:35.079Z,91.15
2018-04-17T22:44:03.409Z,91.48
2018-04-17T22:46:31.752Z,91.36
2018-04-17T22:49:00.090Z,91.88
2018-04-17T22:51:28.429Z,91.70
2018-04-17T22:53:56.766Z,92.08
2018-04-17T22:56:25.113Z,92.19
2018-04-17T22:58:53.446Z,91.72
2018-04-17T23:01:21.793Z,91.96
2018-04-17T23:03:50.134Z,91.94
2018-04-17T23:06:18.472Z,92.22
2018-04-17T23:08:46.795Z,92.24
2018-04-17T23:11:15.132Z,92.29
2018-04-17T23:13:43.472Z,92.16
2018-04-17T23:16:11.816Z,92.27
2018-04-17T23:18:40.265Z,92.12
2018-04-17T23:21:17.137Z,92.10
2018-04-17T23:23:48.743Z,92.18
2018-04-17T23:26:17.098Z,92.16
2018-04-17T23:28:45.412Z,92.44
2018-04-17T23:31:13.801Z,92.38
2018-04-17T23:33:42.126Z,92.40
2018-04-17T23:36:10.447Z,92.42
2018-04-17T23:38:38.783Z,92.63
2018-04-17T23:41:07.110Z,92.85
2018-04-17T23:43:35.447Z,92.93
2018-04-17T23:46:03.786Z,93.16
2018-04-17T23:48:32.143Z,93.18
2018-04-17T23:51:00.473Z,93.44
2018-04-17T23:53:28.839Z,93.20
2018-04-17T23:55:58.056Z,93.44
2018-04-17T23:58:26.406Z,93.66
